Impacts METAR Board INFO
IDs:

KCLT - Charlotte/Douglas In, NC, US

Updated at: 1324 UTC 25 Feb 2018
Potential Impact None Slight Moderate High
Time25/01Z 25/02Z 25/03Z 25/04Z 25/05Z 25/06Z 25/07Z 25/08Z 25/09Z 25/10Z 25/11Z 25/12Z 25/13Z
VIS10 10 10 10 10 10 10 10 10 10 10 10 10
CIG-- 250 250 -- -- -- -- -- -- -- 90 -- --
CoverSCTBKNBKNSCTFEWFEWSCTSCTSCTFEWBKNFEWFEW
FltCatVFRVFRVFRVFRVFRVFRVFRVFRVFRVFRVFRVFRVFR
WX--------------------------
WDir190190180190180180180190190180180200200
WSpd8 9 9 10 14 12 11 15 11 9 11 11 10
WGst-- -- -- -- 22 -- -- -- -- -- -- -- --
Raw hourly METARs
KCLT 250052Z 19008KT 10SM SCT080 SCT250 22/14 A3007 RMK AO2 SLP178 T02170144
KCLT 250152Z COR 19009KT 10SM SCT200 BKN250 22/15 A3007 RMK AO2 SLP176 T02170150
KCLT 250252Z 18009KT 10SM SCT200 BKN250 21/15 A3006 RMK AO2 SLP173 T02110150 50000
KCLT 250352Z 19010KT 10SM SCT250 21/14 A3006 RMK AO2 SLP174 T02110144
KCLT 250452Z 18014G22KT 10SM FEW250 21/15 A3006 RMK AO2 SLP173 T02060150 402670133
KCLT 250552Z 18012KT 10SM FEW250 19/16 A3007 RMK AO2 SLP174 T01940156 10228 20194 52002
KCLT 250652Z 18011KT 10SM FEW015 SCT250 19/16 A3005 RMK AO2 SLP168 T01890156
KCLT 250752Z 19015KT 10SM SCT250 18/16 A3003 RMK AO2 SLP163 T01830156
KCLT 250852Z 19011KT 10SM FEW080 SCT250 18/15 A3003 RMK AO2 SLP160 T01780150 56013
KCLT 250952Z 18009KT 10SM FEW250 17/15 A3003 RMK AO2 SLP161 T01720150
KCLT 251052Z 18011KT 10SM FEW075 BKN090 17/15 A3003 RMK AO2 SLP162 T01720150
KCLT 251152Z 20011KT 10SM FEW090 17/15 A3004 RMK AO2 SLP166 T01720150 10194 20167 53004
KCLT 251252Z 20010KT 10SM FEW100 18/16 A3004 RMK AO2 SLP167 T01780156